Terminal Aerodrome Forecast
Issued by NWS

Home | Current Version | Previous Version | Text Only | Print | Product List | Glossary On
Versions: 1 2 3 4 5 6 7 8 9 10 11 12
000
FTAK31 PAJN 212320
TAFASI
TAF
PASI 212320Z 2200/2224 25006KT P6SM -SHRASN BKN060
     FM221200 VRB03KT P6SM VCFG SCT005 SCT080
     FM221800 VRB03KT P6SM BKN080=

USA.gov is the U.S. government's official web portal to all federal, state and local government web resources and services.